sensor_id;sensor_type;location;lat;lon;timestamp;P1;durP1;ratioP1;P2;durP2;ratioP2
58681;SDS011;44460;40.162;18.294;2022-10-17T00:01:01;43.28;;;30.08;;
58681;SDS011;44460;40.162;18.294;2022-10-17T00:03:27;38.17;;;28.58;;
58681;SDS011;44460;40.162;18.294;2022-10-17T00:05:52;42.78;;;30.10;;
58681;SDS011;44460;40.162;18.294;2022-10-17T00:08:18;40.92;;;28.50;;
58681;SDS011;44460;40.162;18.294;2022-10-17T00:10:43;38.30;;;28.58;;
58681;SDS011;44460;40.162;18.294;2022-10-17T00:13:09;41.22;;;29.75;;
58681;SDS011;44460;40.162;18.294;2022-10-17T00:15:35;41.10;;;28.05;;
58681;SDS011;44460;40.162;18.294;2022-10-17T00:18:01;39.15;;;28.10;;
58681;SDS011;44460;40.162;18.294;2022-10-17T00:20:26;45.45;;;29.90;;
58681;SDS011;44460;40.162;18.294;2022-10-17T00:22:51;39.55;;;27.15;;
58681;SDS011;44460;40.162;18.294;2022-10-17T00:25:17;40.83;;;29.42;;
58681;SDS011;44460;40.162;18.294;2022-10-17T00:27:43;41.28;;;29.33;;
58681;SDS011;44460;40.162;18.294;2022-10-17T00:30:10;40.15;;;28.88;;
58681;SDS011;44460;40.162;18.294;2022-10-17T00:32:35;44.38;;;30.13;;
58681;SDS011;44460;40.162;18.294;2022-10-17T00:35:01;44.85;;;32.42;;
58681;SDS011;44460;40.162;18.294;2022-10-17T00:37:26;41.33;;;29.23;;
58681;SDS011;44460;40.162;18.294;2022-10-17T00:39:52;39.00;;;30.02;;
58681;SDS011;44460;40.162;18.294;2022-10-17T00:42:18;46.50;;;31.27;;
58681;SDS011;44460;40.162;18.294;2022-10-17T00:47:13;42.03;;;27.95;;
58681;SDS011;44460;40.162;18.294;2022-10-17T00:49:39;41.47;;;28.85;;
58681;SDS011;44460;40.162;18.294;2022-10-17T00:52:06;40.78;;;28.88;;
58681;SDS011;44460;40.162;18.294;2022-10-17T00:54:39;41.00;;;29.38;;
58681;SDS011;44460;40.162;18.294;2022-10-17T00:57:07;39.90;;;28.95;;
58681;SDS011;44460;40.162;18.294;2022-10-17T00:59:33;39.83;;;29.55;;
58681;SDS011;44460;40.162;18.294;2022-10-17T01:02:04;42.67;;;29.50;;
58681;SDS011;44460;40.162;18.294;2022-10-17T01:04:30;46.60;;;31.15;;
58681;SDS011;44460;40.162;18.294;2022-10-17T01:06:56;40.80;;;29.77;;
58681;SDS011;44460;40.162;18.294;2022-10-17T01:09:21;53.50;;;32.80;;
58681;SDS011;44460;40.162;18.294;2022-10-17T01:17:08;44.50;;;30.73;;
58681;SDS011;44460;40.162;18.294;2022-10-17T01:22:18;44.38;;;32.25;;
58681;SDS011;44460;40.162;18.294;2022-10-17T01:24:51;49.42;;;32.22;;
58681;SDS011;44460;40.162;18.294;2022-10-17T01:27:25;52.70;;;33.15;;
58681;SDS011;44460;40.162;18.294;2022-10-17T01:32:42;90.93;;;34.17;;
58681;SDS011;44460;40.162;18.294;2022-10-17T01:37:50;88.07;;;33.03;;
58681;SDS011;44460;40.162;18.294;2022-10-17T01:42:45;109.80;;;33.67;;
58681;SDS011;44460;40.162;18.294;2022-10-17T01:47:38;183.27;;;38.22;;
58681;SDS011;44460;40.162;18.294;2022-10-17T01:50:06;267.38;;;36.22;;
58681;SDS011;44460;40.162;18.294;2022-10-17T01:52:40;157.95;;;33.55;;
58681;SDS011;44460;40.162;18.294;2022-10-17T01:55:08;260.52;;;32.90;;
58681;SDS011;44460;40.162;18.294;2022-10-17T01:57:38;248.48;;;32.30;;
58681;SDS011;44460;40.162;18.294;2022-10-17T02:00:07;270.48;;;29.50;;
58681;SDS011;44460;40.162;18.294;2022-10-17T02:02:38;300.65;;;30.70;;
58681;SDS011;44460;40.162;18.294;2022-10-17T02:05:03;180.95;;;25.35;;
58681;SDS011;44460;40.162;18.294;2022-10-17T02:07:29;153.63;;;25.35;;
58681;SDS011;44460;40.162;18.294;2022-10-17T02:09:55;108.47;;;23.90;;
58681;SDS011;44460;40.162;18.294;2022-10-17T02:27:21;91.32;;;22.90;;
58681;SDS011;44460;40.162;18.294;2022-10-17T02:30:11;100.45;;;21.88;;
58681;SDS011;44460;40.162;18.294;2022-10-17T02:32:45;55.17;;;21.00;;
58681;SDS011;44460;40.162;18.294;2022-10-17T02:35:14;82.43;;;20.70;;
58681;SDS011;44460;40.162;18.294;2022-10-17T02:37:40;81.20;;;21.20;;
58681;SDS011;44460;40.162;18.294;2022-10-17T02:40:07;44.87;;;18.73;;
58681;SDS011;44460;40.162;18.294;2022-10-17T02:42:36;27.30;;;17.83;;
58681;SDS011;44460;40.162;18.294;2022-10-17T02:45:02;37.13;;;19.33;;
58681;SDS011;44460;40.162;18.294;2022-10-17T02:47:36;30.02;;;20.05;;
58681;SDS011;44460;40.162;18.294;2022-10-17T02:50:04;37.58;;;20.20;;
58681;SDS011;44460;40.162;18.294;2022-10-17T02:54:57;27.53;;;18.63;;
58681;SDS011;44460;40.162;18.294;2022-10-17T02:59:49;36.90;;;21.15;;
58681;SDS011;44460;40.162;18.294;2022-10-17T03:02:15;28.92;;;21.48;;
58681;SDS011;44460;40.162;18.294;2022-10-17T03:04:44;28.17;;;19.90;;
58681;SDS011;44460;40.162;18.294;2022-10-17T03:07:09;31.33;;;22.40;;
58681;SDS011;44460;40.162;18.294;2022-10-17T03:09:35;40.10;;;21.33;;
58681;SDS011;44460;40.162;18.294;2022-10-17T03:12:01;32.38;;;19.50;;
58681;SDS011;44460;40.162;18.294;2022-10-17T03:14:28;55.72;;;20.08;;
58681;SDS011;44460;40.162;18.294;2022-10-17T03:16:53;45.28;;;19.40;;
58681;SDS011;44460;40.162;18.294;2022-10-17T03:19:19;156.23;;;22.73;;
58681;SDS011;44460;40.162;18.294;2022-10-17T03:21:44;167.43;;;23.23;;
58681;SDS011;44460;40.162;18.294;2022-10-17T03:24:10;151.73;;;24.48;;
58681;SDS011;44460;40.162;18.294;2022-10-17T03:26:36;235.23;;;27.13;;
58681;SDS011;44460;40.162;18.294;2022-10-17T03:29:02;167.00;;;27.27;;
58681;SDS011;44460;40.162;18.294;2022-10-17T03:31:28;199.38;;;25.85;;
58681;SDS011;44460;40.162;18.294;2022-10-17T03:33:54;78.47;;;25.10;;
58681;SDS011;44460;40.162;18.294;2022-10-17T03:36:20;58.20;;;25.00;;
58681;SDS011;44460;40.162;18.294;2022-10-17T03:38:46;43.50;;;23.83;;
58681;SDS011;44460;40.162;18.294;2022-10-17T03:41:12;46.13;;;23.55;;
58681;SDS011;44460;40.162;18.294;2022-10-17T03:43:38;38.90;;;24.58;;
58681;SDS011;44460;40.162;18.294;2022-10-17T03:46:04;81.18;;;25.60;;
58681;SDS011;44460;40.162;18.294;2022-10-17T03:48:30;71.72;;;24.77;;
58681;SDS011;44460;40.162;18.294;2022-10-17T03:51:00;117.60;;;24.80;;
58681;SDS011;44460;40.162;18.294;2022-10-17T03:53:27;84.03;;;24.45;;
58681;SDS011;44460;40.162;18.294;2022-10-17T03:55:53;68.80;;;24.25;;
58681;SDS011;44460;40.162;18.294;2022-10-17T03:58:18;75.20;;;25.45;;
58681;SDS011;44460;40.162;18.294;2022-10-17T04:00:44;38.75;;;23.58;;
58681;SDS011;44460;40.162;18.294;2022-10-17T04:03:09;89.03;;;25.17;;
58681;SDS011;44460;40.162;18.294;2022-10-17T04:05:35;68.10;;;27.52;;
58681;SDS011;44460;40.162;18.294;2022-10-17T04:08:00;55.88;;;27.50;;
58681;SDS011;44460;40.162;18.294;2022-10-17T04:10:46;43.85;;;26.10;;
58681;SDS011;44460;40.162;18.294;2022-10-17T04:13:11;81.97;;;27.38;;
58681;SDS011;44460;40.162;18.294;2022-10-17T04:15:37;40.30;;;27.63;;
58681;SDS011;44460;40.162;18.294;2022-10-17T04:18:03;45.22;;;27.80;;
58681;SDS011;44460;40.162;18.294;2022-10-17T04:20:28;54.45;;;29.42;;
58681;SDS011;44460;40.162;18.294;2022-10-17T04:22:54;51.40;;;27.65;;
58681;SDS011;44460;40.162;18.294;2022-10-17T04:25:20;79.10;;;30.05;;
58681;SDS011;44460;40.162;18.294;2022-10-17T04:27:47;99.50;;;29.08;;
58681;SDS011;44460;40.162;18.294;2022-10-17T04:30:13;61.95;;;28.00;;
58681;SDS011;44460;40.162;18.294;2022-10-17T04:32:39;77.75;;;26.73;;
58681;SDS011;44460;40.162;18.294;2022-10-17T04:35:12;123.97;;;27.65;;
58681;SDS011;44460;40.162;18.294;2022-10-17T04:37:42;130.07;;;27.02;;
58681;SDS011;44460;40.162;18.294;2022-10-17T04:40:14;164.43;;;27.65;;
58681;SDS011;44460;40.162;18.294;2022-10-17T04:42:40;116.13;;;27.02;;
58681;SDS011;44460;40.162;18.294;2022-10-17T04:45:06;106.57;;;24.08;;
58681;SDS011;44460;40.162;18.294;2022-10-17T04:47:34;168.65;;;26.77;;
58681;SDS011;44460;40.162;18.294;2022-10-17T04:49:59;134.73;;;25.27;;
58681;SDS011;44460;40.162;18.294;2022-10-17T04:52:25;136.60;;;22.85;;
58681;SDS011;44460;40.162;18.294;2022-10-17T04:54:51;260.52;;;25.42;;
58681;SDS011;44460;40.162;18.294;2022-10-17T04:57:17;162.48;;;24.02;;
58681;SDS011;44460;40.162;18.294;2022-10-17T05:00:00;199.82;;;25.33;;
58681;SDS011;44460;40.162;18.294;2022-10-17T05:02:45;109.65;;;24.00;;
58681;SDS011;44460;40.162;18.294;2022-10-17T05:05:20;156.90;;;23.48;;
58681;SDS011;44460;40.162;18.294;2022-10-17T05:08:01;150.30;;;25.70;;
58681;SDS011;44460;40.162;18.294;2022-10-17T05:10:34;244.90;;;25.95;;
58681;SDS011;44460;40.162;18.294;2022-10-17T05:13:00;157.82;;;26.80;;
58681;SDS011;44460;40.162;18.294;2022-10-17T05:15:29;85.45;;;24.85;;
58681;SDS011;44460;40.162;18.294;2022-10-17T05:17:55;134.20;;;24.92;;
58681;SDS011;44460;40.162;18.294;2022-10-17T05:20:21;84.95;;;23.73;;
58681;SDS011;44460;40.162;18.294;2022-10-17T05:22:47;128.27;;;24.00;;
58681;SDS011;44460;40.162;18.294;2022-10-17T05:25:13;155.80;;;26.75;;
58681;SDS011;44460;40.162;18.294;2022-10-17T05:27:38;203.18;;;26.58;;
58681;SDS011;44460;40.162;18.294;2022-10-17T05:30:04;84.95;;;23.65;;
58681;SDS011;44460;40.162;18.294;2022-10-17T05:32:32;93.18;;;24.85;;
58681;SDS011;44460;40.162;18.294;2022-10-17T05:34:58;151.25;;;24.85;;
58681;SDS011;44460;40.162;18.294;2022-10-17T05:37:24;164.00;;;26.40;;
58681;SDS011;44460;40.162;18.294;2022-10-17T05:39:52;218.20;;;28.52;;
58681;SDS011;44460;40.162;18.294;2022-10-17T05:42:18;98.13;;;24.95;;
58681;SDS011;44460;40.162;18.294;2022-10-17T05:44:45;121.63;;;27.80;;
58681;SDS011;44460;40.162;18.294;2022-10-17T05:47:12;87.03;;;25.93;;
58681;SDS011;44460;40.162;18.294;2022-10-17T05:49:37;112.13;;;27.45;;
58681;SDS011;44460;40.162;18.294;2022-10-17T05:52:03;103.63;;;28.75;;
58681;SDS011;44460;40.162;18.294;2022-10-17T05:54:33;64.45;;;26.98;;
58681;SDS011;44460;40.162;18.294;2022-10-17T05:56:59;133.82;;;28.27;;
58681;SDS011;44460;40.162;18.294;2022-10-17T05:59:28;89.10;;;33.72;;
58681;SDS011;44460;40.162;18.294;2022-10-17T06:02:04;65.40;;;30.90;;
58681;SDS011;44460;40.162;18.294;2022-10-17T06:04:29;46.85;;;31.88;;
58681;SDS011;44460;40.162;18.294;2022-10-17T06:06:55;41.10;;;28.02;;
58681;SDS011;44460;40.162;18.294;2022-10-17T06:09:21;41.45;;;29.13;;
58681;SDS011;44460;40.162;18.294;2022-10-17T06:11:50;44.22;;;29.63;;
58681;SDS011;44460;40.162;18.294;2022-10-17T06:14:15;43.60;;;28.15;;
58681;SDS011;44460;40.162;18.294;2022-10-17T06:16:41;51.97;;;28.92;;
58681;SDS011;44460;40.162;18.294;2022-10-17T06:19:08;44.17;;;29.10;;
58681;SDS011;44460;40.162;18.294;2022-10-17T06:21:35;41.83;;;28.23;;
58681;SDS011;44460;40.162;18.294;2022-10-17T06:24:08;42.33;;;27.08;;
58681;SDS011;44460;40.162;18.294;2022-10-17T06:26:35;37.47;;;29.13;;
58681;SDS011;44460;40.162;18.294;2022-10-17T06:29:03;40.30;;;28.40;;
58681;SDS011;44460;40.162;18.294;2022-10-17T06:31:33;44.10;;;29.10;;
58681;SDS011;44460;40.162;18.294;2022-10-17T06:33:58;48.08;;;29.27;;
58681;SDS011;44460;40.162;18.294;2022-10-17T06:36:24;35.70;;;23.48;;
58681;SDS011;44460;40.162;18.294;2022-10-17T06:38:50;39.47;;;27.23;;
58681;SDS011;44460;40.162;18.294;2022-10-17T06:41:21;39.70;;;27.38;;
58681;SDS011;44460;40.162;18.294;2022-10-17T06:43:50;37.55;;;25.77;;
58681;SDS011;44460;40.162;18.294;2022-10-17T06:46:34;43.45;;;26.73;;
58681;SDS011;44460;40.162;18.294;2022-10-17T06:49:04;32.28;;;23.52;;
58681;SDS011;44460;40.162;18.294;2022-10-17T06:51:59;31.13;;;24.48;;
58681;SDS011;44460;40.162;18.294;2022-10-17T06:54:45;41.65;;;32.25;;
58681;SDS011;44460;40.162;18.294;2022-10-17T06:57:37;34.90;;;28.60;;
58681;SDS011;44460;40.162;18.294;2022-10-17T07:00:19;39.15;;;28.20;;
58681;SDS011;44460;40.162;18.294;2022-10-17T07:02:50;36.80;;;28.08;;
58681;SDS011;44460;40.162;18.294;2022-10-17T07:05:15;42.65;;;32.05;;
58681;SDS011;44460;40.162;18.294;2022-10-17T07:07:43;43.40;;;32.63;;
58681;SDS011;44460;40.162;18.294;2022-10-17T07:10:09;50.70;;;34.35;;
58681;SDS011;44460;40.162;18.294;2022-10-17T07:12:35;49.03;;;36.85;;
58681;SDS011;44460;40.162;18.294;2022-10-17T07:15:01;42.90;;;34.25;;
58681;SDS011;44460;40.162;18.294;2022-10-17T07:17:28;50.65;;;34.55;;
58681;SDS011;44460;40.162;18.294;2022-10-17T07:19:54;39.88;;;32.13;;
58681;SDS011;44460;40.162;18.294;2022-10-17T07:22:19;41.85;;;32.33;;
58681;SDS011;44460;40.162;18.294;2022-10-17T07:24:47;44.22;;;31.42;;
58681;SDS011;44460;40.162;18.294;2022-10-17T07:27:18;41.17;;;31.27;;
58681;SDS011;44460;40.162;18.294;2022-10-17T07:29:43;39.25;;;29.85;;
58681;SDS011;44460;40.162;18.294;2022-10-17T07:32:29;36.47;;;28.17;;
58681;SDS011;44460;40.162;18.294;2022-10-17T07:34:54;39.58;;;30.73;;
58681;SDS011;44460;40.162;18.294;2022-10-17T07:37:20;42.35;;;29.67;;
58681;SDS011;44460;40.162;18.294;2022-10-17T07:39:51;44.47;;;29.98;;
58681;SDS011;44460;40.162;18.294;2022-10-17T07:42:17;37.03;;;28.63;;
58681;SDS011;44460;40.162;18.294;2022-10-17T07:44:43;36.50;;;29.88;;
58681;SDS011;44460;40.162;18.294;2022-10-17T07:47:11;40.17;;;29.83;;
58681;SDS011;44460;40.162;18.294;2022-10-17T07:49:37;41.47;;;29.92;;
58681;SDS011;44460;40.162;18.294;2022-10-17T07:52:09;37.63;;;28.67;;
58681;SDS011;44460;40.162;18.294;2022-10-17T07:54:35;31.40;;;25.00;;
58681;SDS011;44460;40.162;18.294;2022-10-17T07:57:02;34.42;;;26.80;;
58681;SDS011;44460;40.162;18.294;2022-10-17T07:59:28;36.05;;;29.48;;
58681;SDS011;44460;40.162;18.294;2022-10-17T08:01:56;36.05;;;28.00;;
58681;SDS011;44460;40.162;18.294;2022-10-17T08:04:21;38.60;;;27.77;;
58681;SDS011;44460;40.162;18.294;2022-10-17T08:06:48;34.85;;;26.05;;
58681;SDS011;44460;40.162;18.294;2022-10-17T08:09:13;33.92;;;25.65;;
58681;SDS011;44460;40.162;18.294;2022-10-17T08:11:39;36.45;;;26.48;;
58681;SDS011;44460;40.162;18.294;2022-10-17T08:14:04;32.13;;;26.05;;
58681;SDS011;44460;40.162;18.294;2022-10-17T08:16:30;30.73;;;25.13;;
58681;SDS011;44460;40.162;18.294;2022-10-17T08:18:55;33.33;;;25.23;;
58681;SDS011;44460;40.162;18.294;2022-10-17T08:21:21;34.28;;;23.98;;
58681;SDS011;44460;40.162;18.294;2022-10-17T08:23:46;30.50;;;23.15;;
58681;SDS011;44460;40.162;18.294;2022-10-17T08:26:11;33.05;;;24.08;;
58681;SDS011;44460;40.162;18.294;2022-10-17T08:28:40;34.00;;;22.90;;
58681;SDS011;44460;40.162;18.294;2022-10-17T08:31:09;29.95;;;22.55;;
58681;SDS011;44460;40.162;18.294;2022-10-17T08:33:35;30.10;;;21.92;;
58681;SDS011;44460;40.162;18.294;2022-10-17T08:36:02;26.33;;;20.05;;
58681;SDS011;44460;40.162;18.294;2022-10-17T08:38:28;25.77;;;18.80;;
58681;SDS011;44460;40.162;18.294;2022-10-17T08:40:56;29.00;;;20.00;;
58681;SDS011;44460;40.162;18.294;2022-10-17T08:48:13;29.98;;;19.58;;
58681;SDS011;44460;40.162;18.294;2022-10-17T08:55:38;31.42;;;18.63;;
58681;SDS011;44460;40.162;18.294;2022-10-17T08:58:10;28.85;;;18.77;;
58681;SDS011;44460;40.162;18.294;2022-10-17T09:00:36;24.17;;;18.40;;
58681;SDS011;44460;40.162;18.294;2022-10-17T09:03:14;24.50;;;18.88;;
58681;SDS011;44460;40.162;18.294;2022-10-17T09:05:51;27.15;;;20.08;;
58681;SDS011;44460;40.162;18.294;2022-10-17T09:08:29;26.85;;;19.63;;
58681;SDS011;44460;40.162;18.294;2022-10-17T09:13:48;28.42;;;18.42;;
58681;SDS011;44460;40.162;18.294;2022-10-17T09:16:27;26.15;;;18.83;;
58681;SDS011;44460;40.162;18.294;2022-10-17T09:23:53;25.13;;;18.73;;
58681;SDS011;44460;40.162;18.294;2022-10-17T09:26:19;23.77;;;17.15;;
58681;SDS011;44460;40.162;18.294;2022-10-17T09:28:46;26.17;;;18.95;;
58681;SDS011;44460;40.162;18.294;2022-10-17T09:31:17;22.00;;;17.25;;
58681;SDS011;44460;40.162;18.294;2022-10-17T09:33:45;24.83;;;17.38;;
58681;SDS011;44460;40.162;18.294;2022-10-17T09:36:31;24.35;;;19.02;;
58681;SDS011;44460;40.162;18.294;2022-10-17T09:41:26;23.42;;;17.58;;
58681;SDS011;44460;40.162;18.294;2022-10-17T09:43:58;22.42;;;16.25;;
58681;SDS011;44460;40.162;18.294;2022-10-17T09:46:33;24.60;;;17.02;;
58681;SDS011;44460;40.162;18.294;2022-10-17T09:49:02;25.88;;;18.75;;
58681;SDS011;44460;40.162;18.294;2022-10-17T09:51:29;22.75;;;18.20;;
58681;SDS011;44460;40.162;18.294;2022-10-17T09:53:56;24.73;;;18.25;;
58681;SDS011;44460;40.162;18.294;2022-10-17T09:56:23;26.08;;;17.95;;
58681;SDS011;44460;40.162;18.294;2022-10-17T09:58:50;27.15;;;19.23;;
58681;SDS011;44460;40.162;18.294;2022-10-17T10:01:26;22.35;;;17.40;;
58681;SDS011;44460;40.162;18.294;2022-10-17T10:04:09;22.73;;;18.02;;
58681;SDS011;44460;40.162;18.294;2022-10-17T10:06:34;25.52;;;19.15;;
58681;SDS011;44460;40.162;18.294;2022-10-17T10:09:00;22.80;;;17.85;;
58681;SDS011;44460;40.162;18.294;2022-10-17T10:11:49;25.75;;;18.48;;
58681;SDS011;44460;40.162;18.294;2022-10-17T10:16:46;20.40;;;16.48;;
58681;SDS011;44460;40.162;18.294;2022-10-17T10:19:28;23.65;;;16.02;;
58681;SDS011;44460;40.162;18.294;2022-10-17T10:22:01;20.10;;;16.13;;
58681;SDS011;44460;40.162;18.294;2022-10-17T10:24:27;23.20;;;16.35;;
58681;SDS011;44460;40.162;18.294;2022-10-17T10:26:53;26.63;;;16.80;;
58681;SDS011;44460;40.162;18.294;2022-10-17T10:31:45;23.88;;;17.92;;
58681;SDS011;44460;40.162;18.294;2022-10-17T10:34:13;21.88;;;16.33;;
58681;SDS011;44460;40.162;18.294;2022-10-17T10:36:54;26.80;;;18.17;;
58681;SDS011;44460;40.162;18.294;2022-10-17T10:42:05;23.45;;;16.90;;
58681;SDS011;44460;40.162;18.294;2022-10-17T10:44:32;28.02;;;18.88;;
58681;SDS011;44460;40.162;18.294;2022-10-17T10:47:04;25.52;;;18.08;;
58681;SDS011;44460;40.162;18.294;2022-10-17T10:49:31;27.45;;;17.48;;
58681;SDS011;44460;40.162;18.294;2022-10-17T10:51:56;21.52;;;16.27;;
58681;SDS011;44460;40.162;18.294;2022-10-17T10:54:24;24.85;;;18.40;;
58681;SDS011;44460;40.162;18.294;2022-10-17T10:56:53;26.02;;;18.20;;
58681;SDS011;44460;40.162;18.294;2022-10-17T11:02:03;20.88;;;17.13;;
58681;SDS011;44460;40.162;18.294;2022-10-17T11:07:13;21.05;;;15.68;;
58681;SDS011;44460;40.162;18.294;2022-10-17T11:09:45;22.67;;;17.05;;
58681;SDS011;44460;40.162;18.294;2022-10-17T13:29:33;12.13;;;8.05;;
58681;SDS011;44460;40.162;18.294;2022-10-17T13:32:00;11.70;;;7.75;;
58681;SDS011;44460;40.162;18.294;2022-10-17T13:34:28;21.55;;;7.65;;
58681;SDS011;44460;40.162;18.294;2022-10-17T13:36:54;13.68;;;8.00;;
58681;SDS011;44460;40.162;18.294;2022-10-17T13:39:21;11.82;;;7.75;;
58681;SDS011;44460;40.162;18.294;2022-10-17T13:41:48;13.93;;;8.23;;
58681;SDS011;44460;40.162;18.294;2022-10-17T13:44:15;15.38;;;10.40;;
58681;SDS011;44460;40.162;18.294;2022-10-17T13:46:41;19.40;;;11.20;;
58681;SDS011;44460;40.162;18.294;2022-10-17T13:49:08;18.20;;;13.45;;
58681;SDS011;44460;40.162;18.294;2022-10-17T13:51:34;20.75;;;12.82;;
58681;SDS011;44460;40.162;18.294;2022-10-17T13:53:59;16.15;;;12.35;;
58681;SDS011;44460;40.162;18.294;2022-10-17T13:56:26;19.02;;;14.63;;
58681;SDS011;44460;40.162;18.294;2022-10-17T13:58:52;21.30;;;14.07;;
58681;SDS011;44460;40.162;18.294;2022-10-17T14:01:20;18.75;;;14.57;;
58681;SDS011;44460;40.162;18.294;2022-10-17T14:03:46;20.38;;;15.80;;
58681;SDS011;44460;40.162;18.294;2022-10-17T14:06:21;21.70;;;16.55;;
58681;SDS011;44460;40.162;18.294;2022-10-17T14:11:23;24.95;;;16.90;;
58681;SDS011;44460;40.162;18.294;2022-10-17T14:13:50;22.52;;;16.25;;
58681;SDS011;44460;40.162;18.294;2022-10-17T14:16:16;22.73;;;16.02;;
58681;SDS011;44460;40.162;18.294;2022-10-17T14:18:44;24.60;;;16.58;;
58681;SDS011;44460;40.162;18.294;2022-10-17T14:21:11;23.77;;;18.17;;
58681;SDS011;44460;40.162;18.294;2022-10-17T14:23:42;23.60;;;17.85;;
58681;SDS011;44460;40.162;18.294;2022-10-17T14:28:38;27.23;;;18.88;;
58681;SDS011;44460;40.162;18.294;2022-10-17T14:31:23;43.05;;;29.95;;
58681;SDS011;44460;40.162;18.294;2022-10-17T14:33:50;29.05;;;19.58;;
58681;SDS011;44460;40.162;18.294;2022-10-17T14:36:15;21.52;;;17.65;;
58681;SDS011;44460;40.162;18.294;2022-10-17T14:38:45;22.67;;;18.98;;
58681;SDS011;44460;40.162;18.294;2022-10-17T14:41:15;23.63;;;19.05;;
58681;SDS011;44460;40.162;18.294;2022-10-17T14:43:43;27.77;;;19.73;;
58681;SDS011;44460;40.162;18.294;2022-10-17T14:46:15;26.40;;;20.85;;
58681;SDS011;44460;40.162;18.294;2022-10-17T14:48:40;23.55;;;19.00;;
58681;SDS011;44460;40.162;18.294;2022-10-17T14:53:32;28.88;;;19.77;;
58681;SDS011;44460;40.162;18.294;2022-10-17T14:55:59;28.58;;;20.67;;
58681;SDS011;44460;40.162;18.294;2022-10-17T14:58:25;22.90;;;19.00;;
58681;SDS011;44460;40.162;18.294;2022-10-17T15:00:55;32.40;;;20.40;;
58681;SDS011;44460;40.162;18.294;2022-10-17T15:03:20;27.35;;;19.48;;
58681;SDS011;44460;40.162;18.294;2022-10-17T15:05:46;25.40;;;19.27;;
58681;SDS011;44460;40.162;18.294;2022-10-17T15:08:15;26.10;;;20.08;;
58681;SDS011;44460;40.162;18.294;2022-10-17T15:10:41;27.83;;;18.83;;
58681;SDS011;44460;40.162;18.294;2022-10-17T15:13:07;28.10;;;18.25;;
58681;SDS011;44460;40.162;18.294;2022-10-17T15:15:33;28.95;;;19.90;;
58681;SDS011;44460;40.162;18.294;2022-10-17T15:17:59;29.17;;;20.25;;
58681;SDS011;44460;40.162;18.294;2022-10-17T15:20:25;32.25;;;22.02;;
58681;SDS011;44460;40.162;18.294;2022-10-17T15:22:55;34.35;;;25.98;;
58681;SDS011;44460;40.162;18.294;2022-10-17T15:25:21;33.55;;;24.55;;
58681;SDS011;44460;40.162;18.294;2022-10-17T15:27:47;31.48;;;22.50;;
58681;SDS011;44460;40.162;18.294;2022-10-17T15:30:45;33.42;;;22.65;;
58681;SDS011;44460;40.162;18.294;2022-10-17T15:33:04;30.40;;;21.75;;
58681;SDS011;44460;40.162;18.294;2022-10-17T15:35:29;31.00;;;22.83;;
58681;SDS011;44460;40.162;18.294;2022-10-17T15:37:55;33.92;;;22.95;;
58681;SDS011;44460;40.162;18.294;2022-10-17T15:42:46;33.53;;;22.52;;
58681;SDS011;44460;40.162;18.294;2022-10-17T15:45:12;31.15;;;22.85;;
58681;SDS011;44460;40.162;18.294;2022-10-17T15:47:40;31.58;;;24.98;;
58681;SDS011;44460;40.162;18.294;2022-10-17T15:50:06;34.58;;;24.70;;
58681;SDS011;44460;40.162;18.294;2022-10-17T15:52:33;38.63;;;24.38;;
58681;SDS011;44460;40.162;18.294;2022-10-17T15:54:58;32.92;;;25.00;;
58681;SDS011;44460;40.162;18.294;2022-10-17T15:57:28;35.45;;;25.42;;
58681;SDS011;44460;40.162;18.294;2022-10-17T15:59:54;32.70;;;25.17;;
58681;SDS011;44460;40.162;18.294;2022-10-17T16:02:20;34.28;;;26.13;;
58681;SDS011;44460;40.162;18.294;2022-10-17T16:04:46;34.33;;;26.48;;
58681;SDS011;44460;40.162;18.294;2022-10-17T16:07:12;30.90;;;25.30;;
58681;SDS011;44460;40.162;18.294;2022-10-17T16:09:38;33.38;;;25.42;;
58681;SDS011;44460;40.162;18.294;2022-10-17T16:12:04;32.92;;;25.58;;
58681;SDS011;44460;40.162;18.294;2022-10-17T16:14:30;37.13;;;26.02;;
58681;SDS011;44460;40.162;18.294;2022-10-17T16:16:59;36.70;;;26.73;;
58681;SDS011;44460;40.162;18.294;2022-10-17T16:19:25;37.20;;;26.98;;
58681;SDS011;44460;40.162;18.294;2022-10-17T16:21:54;40.75;;;27.58;;
58681;SDS011;44460;40.162;18.294;2022-10-17T16:24:19;33.28;;;24.77;;
58681;SDS011;44460;40.162;18.294;2022-10-17T16:26:45;39.22;;;28.50;;
58681;SDS011;44460;40.162;18.294;2022-10-17T16:29:10;37.15;;;28.05;;
58681;SDS011;44460;40.162;18.294;2022-10-17T16:31:38;40.35;;;27.08;;
58681;SDS011;44460;40.162;18.294;2022-10-17T16:34:04;37.92;;;27.42;;
58681;SDS011;44460;40.162;18.294;2022-10-17T16:36:31;38.58;;;27.90;;
58681;SDS011;44460;40.162;18.294;2022-10-17T16:38:56;35.25;;;26.75;;
58681;SDS011;44460;40.162;18.294;2022-10-17T16:41:26;40.72;;;28.60;;
58681;SDS011;44460;40.162;18.294;2022-10-17T16:43:52;39.95;;;26.88;;
58681;SDS011;44460;40.162;18.294;2022-10-17T16:46:18;41.25;;;27.38;;
58681;SDS011;44460;40.162;18.294;2022-10-17T16:48:44;38.17;;;28.13;;
58681;SDS011;44460;40.162;18.294;2022-10-17T16:51:11;39.85;;;28.92;;
58681;SDS011;44460;40.162;18.294;2022-10-17T16:53:36;39.10;;;27.75;;
58681;SDS011;44460;40.162;18.294;2022-10-17T16:56:08;48.72;;;29.73;;
58681;SDS011;44460;40.162;18.294;2022-10-17T16:58:34;41.05;;;28.08;;
58681;SDS011;44460;40.162;18.294;2022-10-17T17:01:03;36.63;;;28.73;;
58681;SDS011;44460;40.162;18.294;2022-10-17T17:03:28;38.55;;;28.33;;
58681;SDS011;44460;40.162;18.294;2022-10-17T17:05:54;45.83;;;32.30;;
58681;SDS011;44460;40.162;18.294;2022-10-17T17:08:20;39.83;;;29.27;;
58681;SDS011;44460;40.162;18.294;2022-10-17T17:10:45;43.30;;;31.35;;
58681;SDS011;44460;40.162;18.294;2022-10-17T17:13:11;39.75;;;29.88;;
58681;SDS011;44460;40.162;18.294;2022-10-17T17:15:37;41.95;;;31.10;;
58681;SDS011;44460;40.162;18.294;2022-10-17T17:18:02;42.30;;;30.17;;
58681;SDS011;44460;40.162;18.294;2022-10-17T17:20:28;44.72;;;30.20;;
58681;SDS011;44460;40.162;18.294;2022-10-17T17:22:53;51.60;;;32.47;;
58681;SDS011;44460;40.162;18.294;2022-10-17T17:25:20;44.92;;;30.30;;
58681;SDS011;44460;40.162;18.294;2022-10-17T17:27:45;44.05;;;30.70;;
58681;SDS011;44460;40.162;18.294;2022-10-17T17:30:11;40.53;;;29.00;;
58681;SDS011;44460;40.162;18.294;2022-10-17T17:32:36;43.55;;;32.20;;
58681;SDS011;44460;40.162;18.294;2022-10-17T17:35:02;47.53;;;33.17;;
58681;SDS011;44460;40.162;18.294;2022-10-17T17:37:28;47.67;;;32.42;;
58681;SDS011;44460;40.162;18.294;2022-10-17T17:39:54;43.10;;;31.85;;
58681;SDS011;44460;40.162;18.294;2022-10-17T17:42:20;47.20;;;31.55;;
58681;SDS011;44460;40.162;18.294;2022-10-17T17:44:50;44.38;;;31.67;;
58681;SDS011;44460;40.162;18.294;2022-10-17T17:47:18;48.67;;;32.00;;
58681;SDS011;44460;40.162;18.294;2022-10-17T17:49:44;44.03;;;31.63;;
58681;SDS011;44460;40.162;18.294;2022-10-17T17:52:10;48.85;;;33.85;;
58681;SDS011;44460;40.162;18.294;2022-10-17T17:54:36;48.00;;;29.75;;